MDT,Max TemperatureF,Mean TemperatureF,Min TemperatureF,Max Dew PointF,MeanDew PointF,Min DewpointF,Max Humidity, Mean Humidity, Min Humidity, Max Sea Level PressureIn, Mean Sea Level PressureIn, Min Sea Level PressureIn, Max VisibilityMiles, Mean VisibilityMiles, Min VisibilityMiles, Max Wind SpeedMPH, Mean Wind SpeedMPH, Max Gust SpeedMPH,PrecipitationIn, CloudCover, Events, WindDirDegrees
2013-8-1,72,58,45,53,49,44,94,70,41,30.52,30.46,30.39,10,10,5,24,5,30,0.03,2,Rain,239
2013-8-2,76,62,49,54,50,43,96,68,33,30.46,30.37,30.31,10,10,10,16,6,22,0.04,4,Rain,242
2013-8-3,74,62,51,56,52,48,97,71,40,30.48,30.42,30.37,10,10,10,14,3,16,0.01,5,Rain,211
2013-8-4,78,61,44,54,49,43,99,69,31,30.49,30.45,30.40,10,9,0,16,3,23,0.00,2,Fog,215
2013-8-5,77,64,52,51,47,40,94,59,29,30.50,30.40,30.32,10,10,10,20,7,24,0.00,2,Rain,234
2013-8-6,74,59,44,52,46,40,95,67,31,30.39,30.35,30.31,10,10,10,16,3,24,0.00,4,Rain,205
2013-8-7,68,54,40,54,48,39,97,86,45,30.37,30.33,30.26,10,10,2,12,1,9,0.12,4,Rain,187
2013-8-8,66,54,43,52,47,43,99,85,50,30.40,30.31,30.26,10,7,0,17,2,22,0.30,5,Fog-Rain,319
2013-8-9,70,54,39,50,43,35,99,75,29,30.53,30.43,30.39,10,8,0,16,3,23,0.30,4,Fog,228
2013-8-10,73,59,45,51,46,33,97,73,24,30.60,30.51,30.43,10,10,2,21,3,25,0.56,4,Rain,218
2013-8-11,70,56,41,48,44,36,99,69,29,30.53,30.45,30.37,10,9,0,12,2,20,0.01,3,Fog,239
2013-8-12,63,53,43,55,49,42,97,86,59,30.48,30.45,30.40,10,10,2,15,1,23,0.22,4,Rain,236
2013-8-13,70,57,44,55,46,38,99,77,32,30.49,30.46,30.42,10,8,0,23,2,28,0.09,3,Fog-Rain,277
2013-8-14,71,55,39,52,44,33,99,71,28,30.50,30.45,30.38,10,9,0,26,2,33,0.00,4,Fog,219
2013-8-15,75,57,39,52,40,29,97,63,19,30.49,30.45,30.39,10,10,10,12,2,17,0.00,2,,351
2013-8-16,76,57,38,46,40,32,93,56,19,30.53,30.47,30.43,10,10,10,16,2,22,0.00,2,Rain,151
2013-8-17,77,60,44,48,41,33,89,56,22,30.52,30.46,30.39,10,10,7,13,2,21,0.00,2,,132
2013-8-18,76,56,37,51,42,35,94,66,25,30.48,30.45,30.41,10,10,10,17,3,25,0.00,2,Rain,216
2013-8-19,73,56,39,53,45,38,95,69,33,30.48,30.44,30.39,10,10,10,14,2,,0.00,1,Rain,176
2013-8-20,75,55,35,50,43,34,96,66,30,30.45,30.40,30.35,10,10,10,20,2,24,0.00,3,Rain,161
2013-8-21,73,56,38,51,45,37,96,68,35,30.48,30.43,30.39,10,10,10,15,1,21,0.00,2,,212
2013-8-22,78,58,37,49,42,36,95,63,26,30.50,30.44,30.37,10,10,10,16,2,23,0.03,2,,158
2013-8-23,76,55,34,47,39,30,94,56,20,30.47,30.40,30.32,10,10,10,21,4,24,0.00,1,,168
2013-8-24,68,54,40,54,48,38,95,76,47,30.49,30.42,30.38,10,10,2,12,3,18,0.25,5,Rain,252
2013-8-25,68,56,45,56,51,44,97,86,56,30.55,30.51,30.48,10,10,3,12,2,16,0.12,6,Rain,232
2013-8-26,71,56,42,55,48,42,99,76,43,30.56,30.51,30.45,10,7,0,14,2,18,0.00,3,Fog,196
2013-8-27,78,58,38,51,43,32,96,61,19,30.49,30.43,30.37,10,10,5,12,1,16,0.00,1,,142
2013-8-28,79,58,38,49,42,36,95,60,25,30.47,30.42,30.37,10,10,10,14,2,18,0.00,2,,153
2013-8-29,79,59,39,50,42,36,94,61,22,30.51,30.47,30.42,10,10,10,8,1,,0.00,2,,195
2013-8-30,82,60,37,47,39,32,93,53,16,30.53,30.46,30.39,10,10,10,10,1,16,0.00,1,,122
2013-8-31,79,59,39,50,43,36,91,61,25,30.45,30.40,30.33,10,10,10,18,2,28,0.00,2,Rain,92